createdAt,value
2023-01-23T00:04:42.318Z,20.67
2023-01-23T00:09:45.251Z,17.30
2023-01-23T00:14:48.122Z,18.00
2023-01-23T00:19:53.984Z,18.23
2023-01-23T00:24:56.774Z,18.20
2023-01-23T00:29:59.669Z,18.85
2023-01-23T00:35:04.037Z,18.70
2023-01-23T00:40:08.282Z,18.77
2023-01-23T00:45:11.824Z,17.92
2023-01-23T00:50:16.134Z,18.45
2023-01-23T00:55:18.929Z,18.23
2023-01-23T01:00:22.038Z,18.58
2023-01-23T01:05:26.148Z,17.88
2023-01-23T01:10:29.647Z,18.05
2023-01-23T01:15:32.807Z,17.45
2023-01-23T01:20:37.004Z,18.27
2023-01-23T01:25:40.192Z,17.20
2023-01-23T01:30:43.087Z,15.70
2023-01-23T01:35:47.221Z,18.10
2023-01-23T01:40:50.402Z,18.38
2023-01-23T01:46:13.663Z,18.25
2023-01-23T01:51:23.647Z,19.55
2023-01-23T01:56:30.140Z,18.88
2023-01-23T02:01:33.348Z,19.27
2023-01-23T02:06:38.990Z,17.10
2023-01-23T02:11:43.432Z,16.20
2023-01-23T02:16:51.003Z,17.23
2023-01-23T02:22:07.180Z,15.88
2023-01-23T02:27:11.605Z,15.38
2023-01-23T02:32:14.674Z,16.15
2023-01-23T02:37:17.531Z,15.27
2023-01-23T02:42:23.702Z,15.00
2023-01-23T02:47:29.523Z,14.38
2023-01-23T02:52:34.248Z,15.32
2023-01-23T02:57:38.365Z,16.38
2023-01-23T03:02:41.207Z,17.98
2023-01-23T03:07:46.122Z,15.50
2023-01-23T03:12:50.270Z,16.13
2023-01-23T03:17:53.710Z,15.18
2023-01-23T03:22:57.221Z,14.82
2023-01-23T03:28:01.433Z,15.90
2023-01-23T03:33:04.397Z,15.30
2023-01-23T03:38:07.411Z,15.35
2023-01-23T03:43:11.718Z,14.23
2023-01-23T03:48:20.363Z,14.20
2023-01-23T03:53:23.365Z,15.52
2023-01-23T03:58:28.014Z,16.23
2023-01-23T04:03:32.830Z,14.98
2023-01-23T04:08:35.587Z,14.60
2023-01-23T04:13:40.237Z,13.98
2023-01-23T04:18:44.132Z,14.63
2023-01-23T04:23:46.983Z,15.52
2023-01-23T04:28:51.819Z,15.25
2023-01-23T04:33:54.642Z,14.98
2023-01-23T04:38:59.351Z,15.18
2023-01-23T04:44:19.312Z,14.65
2023-01-23T04:49:33.750Z,13.60
2023-01-23T04:54:36.760Z,12.55
2023-01-23T04:59:41.694Z,13.07
2023-01-23T05:04:44.568Z,12.43
2023-01-23T05:09:47.460Z,13.10
2023-01-23T05:14:53.386Z,14.20
2023-01-23T05:19:56.492Z,14.82
2023-01-23T05:24:59.262Z,15.85
2023-01-23T05:30:07.992Z,16.08
2023-01-23T05:35:11.827Z,15.27
2023-01-23T05:40:17.768Z,15.90
2023-01-23T05:45:42.280Z,16.13
2023-01-23T05:50:51.921Z,15.02
2023-01-23T05:55:55.566Z,14.38
2023-01-23T06:01:00.616Z,14.52
2023-01-23T06:06:21.754Z,15.57
2023-01-23T06:11:24.504Z,15.27
2023-01-23T06:16:28.856Z,14.68
2023-01-23T06:21:32.621Z,15.60
2023-01-23T06:26:35.814Z,16.02
2023-01-23T06:31:40.111Z,16.90
2023-01-23T06:36:46.156Z,15.50
2023-01-23T06:41:49.169Z,16.52
2023-01-23T06:46:59.650Z,16.88
2023-01-23T06:52:02.649Z,16.98
2023-01-23T06:57:06.039Z,16.85
2023-01-23T07:02:12.037Z,17.88
2023-01-23T07:07:23.115Z,18.58
2023-01-23T07:12:26.731Z,19.92
2023-01-23T07:17:30.989Z,19.60
2023-01-23T07:22:33.849Z,19.38
2023-01-23T07:27:36.659Z,18.52
2023-01-23T07:32:40.799Z,19.58
2023-01-23T07:37:43.628Z,18.40
2023-01-23T07:42:46.743Z,18.92
2023-01-23T07:47:50.866Z,10.48
2023-01-23T07:52:56.131Z,27.80
2023-01-23T07:57:59.605Z,17.15
2023-01-23T08:03:03.871Z,12.95
2023-01-23T08:08:13.421Z,13.10
2023-01-23T08:13:16.670Z,12.60
2023-01-23T08:18:20.798Z,11.60
2023-01-23T08:23:25.732Z,11.75
2023-01-23T08:28:28.873Z,13.90
2023-01-23T08:33:34.218Z,12.07
2023-01-23T08:38:37.009Z,12.90
2023-01-23T08:43:41.435Z,15.15
2023-01-23T08:48:45.645Z,13.77
2023-01-23T08:53:48.674Z,13.23
2023-01-23T08:58:52.167Z,13.77
2023-01-23T09:03:57.553Z,13.32
2023-01-23T09:09:00.369Z,13.55
2023-01-23T09:14:03.116Z,13.27
2023-01-23T09:19:08.152Z,13.60
2023-01-23T09:24:10.896Z,11.93
2023-01-23T09:29:13.658Z,11.80
2023-01-23T09:34:17.870Z,12.38
2023-01-23T09:39:21.873Z,13.45
2023-01-23T09:44:36.226Z,12.65
2023-01-23T09:49:47.118Z,13.57
2023-01-23T09:54:54.029Z,13.77
2023-01-23T10:00:04.909Z,12.02
2023-01-23T10:05:15.678Z,13.48
2023-01-23T10:10:54.737Z,13.80
2023-01-23T10:16:11.406Z,12.60
2023-01-23T10:21:26.346Z,13.15
2023-01-23T10:26:32.972Z,12.73
2023-01-23T10:31:39.617Z,14.05
2023-01-23T10:36:55.914Z,13.85
2023-01-23T10:42:02.482Z,14.25
2023-01-23T10:47:18.956Z,13.93
2023-01-23T10:52:36.254Z,13.43
2023-01-23T10:57:48.370Z,13.25
2023-01-23T11:02:51.547Z,12.88
2023-01-23T11:07:56.241Z,14.63
2023-01-23T11:13:00.839Z,14.63
2023-01-23T11:18:23.670Z,14.82
2023-01-23T11:28:35.313Z,11.75
2023-01-23T11:33:44.331Z,12.63
2023-01-23T11:38:53.207Z,11.13
2023-01-23T11:43:56.154Z,11.50
2023-01-23T11:49:14.646Z,11.63
2023-01-23T11:54:39.245Z,12.27
2023-01-23T12:00:00.941Z,12.68
2023-01-23T12:05:22.499Z,12.35
2023-01-23T12:10:31.377Z,12.70
2023-01-23T12:15:44.658Z,13.60
2023-01-23T12:20:57.492Z,12.52
2023-01-23T12:26:13.277Z,12.60
2023-01-23T12:31:30.118Z,12.25
2023-01-23T12:37:12.331Z,13.35
2023-01-23T12:42:26.313Z,13.27
2023-01-23T12:47:33.941Z,13.40
2023-01-23T12:52:41.010Z,13.00
2023-01-23T12:58:00.043Z,12.75
2023-01-23T13:03:25.926Z,14.13
2023-01-23T13:08:40.511Z,13.82
2023-01-23T13:13:55.236Z,13.75
2023-01-23T13:19:17.128Z,15.52
2023-01-23T13:24:59.607Z,15.03
2023-01-23T13:30:06.149Z,14.60
2023-01-23T13:35:50.026Z,15.40
2023-01-23T13:41:26.245Z,15.00
2023-01-23T14:24:22.870Z,17.35
2023-01-23T14:29:28.431Z,18.48
2023-01-23T14:34:40.193Z,19.02
2023-01-23T14:39:53.023Z,18.40
2023-01-23T14:44:58.023Z,19.25
2023-01-23T14:50:03.503Z,20.67
2023-01-23T14:55:32.655Z,22.52
2023-01-23T15:00:36.695Z,20.60
2023-01-23T15:05:41.701Z,20.90
2023-01-23T15:10:47.466Z,20.20
2023-01-23T15:15:56.659Z,20.45
2023-01-23T15:21:02.937Z,19.02
2023-01-23T15:26:23.723Z,19.30
2023-01-23T15:31:30.679Z,20.23
2023-01-23T15:36:34.971Z,19.33
2023-01-23T15:41:45.661Z,21.00
2023-01-23T15:46:48.799Z,19.10
2023-01-23T15:51:53.333Z,21.90
2023-01-23T15:57:06.665Z,20.80
2023-01-23T16:02:29.713Z,21.20
2023-01-23T16:07:37.583Z,22.55
2023-01-23T16:12:40.359Z,23.58
2023-01-23T16:17:43.173Z,19.92
2023-01-23T16:22:50.064Z,24.25
2023-01-23T16:27:52.867Z,20.45
2023-01-23T16:32:57.186Z,20.88
2023-01-23T16:38:01.390Z,21.33
2023-01-23T16:43:04.160Z,21.42
2023-01-23T16:48:09.123Z,22.17
2023-01-23T16:53:23.141Z,20.92
2023-01-23T16:58:28.944Z,20.58
2023-01-23T17:03:36.175Z,21.88
2023-01-23T17:08:40.366Z,22.40
2023-01-23T17:13:43.993Z,20.75
2023-01-23T17:18:46.844Z,21.80
2023-01-23T17:23:50.964Z,21.63
2023-01-23T17:28:53.837Z,21.10
2023-01-23T17:33:57.059Z,19.30
2023-01-23T17:39:01.427Z,19.33
2023-01-23T17:44:04.345Z,22.15
2023-01-23T17:49:30.192Z,22.15
2023-01-23T17:54:34.555Z,20.33
2023-01-23T17:59:37.351Z,20.58
2023-01-23T18:04:44.066Z,19.55
2023-01-23T18:09:48.212Z,20.25
2023-01-23T18:14:57.320Z,20.20
2023-01-23T18:20:00.652Z,21.42
2023-01-23T18:25:06.083Z,20.63
2023-01-23T18:30:22.176Z,18.35
2023-01-23T18:35:33.797Z,20.27
2023-01-23T18:40:49.239Z,19.27
2023-01-23T18:45:53.924Z,19.67
2023-01-23T18:51:09.597Z,20.25
2023-01-23T18:56:23.547Z,19.90
2023-01-23T19:01:36.095Z,19.17
2023-01-23T19:06:41.227Z,20.02
2023-01-23T19:11:57.338Z,17.95
2023-01-23T19:17:08.789Z,19.85
2023-01-23T19:22:13.547Z,20.60
2023-01-23T19:27:22.335Z,21.05
2023-01-23T19:32:25.872Z,20.98
2023-01-23T19:37:28.702Z,19.52
2023-01-23T19:42:48.884Z,19.30
2023-01-23T19:47:54.352Z,18.25
2023-01-23T19:52:58.596Z,18.30
2023-01-23T19:58:02.772Z,19.05
2023-01-23T20:03:05.991Z,17.83
2023-01-23T20:08:09.924Z,18.02
2023-01-23T20:13:15.156Z,19.52
2023-01-23T20:18:18.117Z,18.92
2023-01-23T20:23:20.926Z,19.48
2023-01-23T20:28:25.066Z,18.70
2023-01-23T20:33:27.826Z,17.33
2023-01-23T20:38:30.909Z,20.00
2023-01-23T20:43:35.394Z,18.13
2023-01-23T20:48:39.787Z,19.30
2023-01-23T20:53:43.182Z,18.25
2023-01-23T20:59:06.391Z,18.27
2023-01-23T21:04:09.186Z,18.60
2023-01-23T21:09:11.975Z,19.98
2023-01-23T21:14:16.489Z,18.30
2023-01-23T21:19:19.393Z,19.38
2023-01-23T21:24:22.326Z,18.25
2023-01-23T21:29:26.544Z,18.67
2023-01-23T21:34:29.411Z,19.08
2023-01-23T21:39:32.180Z,19.10
2023-01-23T21:44:36.314Z,19.27
2023-01-23T21:49:39.084Z,18.10
2023-01-23T21:54:43.138Z,17.55
2023-01-23T22:00:07.314Z,18.08
2023-01-23T22:05:16.094Z,19.25
2023-01-23T22:10:19.057Z,18.38
2023-01-23T22:15:23.679Z,19.17
2023-01-23T22:20:26.797Z,17.42
2023-01-23T22:25:29.581Z,16.15
2023-01-23T22:30:33.677Z,16.95
2023-01-23T22:35:38.806Z,17.45
2023-01-23T22:40:42.343Z,16.67
2023-01-23T22:45:46.397Z,15.98
2023-01-23T22:50:49.161Z,16.67
2023-01-23T22:55:51.902Z,17.48
2023-01-23T23:00:56.112Z,18.25
2023-01-23T23:05:59.783Z,17.20
2023-01-23T23:11:03.419Z,16.73
2023-01-23T23:16:09.245Z,17.15
2023-01-23T23:21:13.631Z,13.95
2023-01-23T23:26:16.817Z,15.10
2023-01-23T23:31:21.048Z,14.77
2023-01-23T23:36:23.946Z,14.52
2023-01-23T23:41:26.786Z,13.82
2023-01-23T23:46:30.903Z,14.65
2023-01-23T23:51:33.640Z,14.77
2023-01-23T23:56:36.359Z,15.23
